Thompson, Nebraska
Current Conditions -  °F | °C
As of 10:55 PM on Sunday 21 Dec 2014 (Local Time) from KHJH Reporting Station
Overcast Overcast  
Wind Chill: 37°   Ceiling: 800
Heat Index: 43°   Visibility: 7mi
Dew Point: 40°   Wind: 10mph
Humidity: 91%   Direction: 170°S
Pressure: 29.6"   Gusts: NA
Location:  40.1696°N, 97.2152°W
Report Text: KHJH 220455Z AUTO 17009KT 7SM BKN008 OVC013 06/05 A2960 RMK AO2 T00610047
Loading
Personal Weather Stations






























Interactive Weather Map New forecast layout! Learn more

10-Day Weather Forecast

Advertisements
Track Severe Weather on mobile